Time;durP1;ratioP1;P1;durP2;ratioP2;P2;SDS_P1;SDS_P2;PMS_P1;PMS_P2;Temp;Humidity;BMP_temperature;BMP_pressure;BME280_temperature;BME280_humidity;BME280_pressure;Samples;Min_cycle;Max_cycle;Signal;HPM_P1;HPM_P2
2022/08/26 00:02:38;;;;;;;;;;;19.80;99.90;;;;;;5013372;28;19989;-72
2022/08/26 00:05:10;;;;;;;;;;;19.70;99.90;;;;;;5020561;28;19921;-72
2022/08/26 00:07:41;;;;;;;;;;;19.70;99.90;;;;;;5021730;28;20609;-72
2022/08/26 00:10:13;;;;;;;;;;;19.70;99.90;;;;;;5028980;28;19927;-72
2022/08/26 00:12:45;;;;;;;;;;;19.70;99.90;;;;;;5012665;28;19927;-72
2022/08/26 00:15:18;;;;;;;;;;;19.60;99.90;;;;;;5020702;28;20011;-72
2022/08/26 00:17:50;;;;;;;;;;;19.60;99.90;;;;;;5004774;28;20422;-72
2022/08/26 00:20:24;;;;;;;;;;;19.60;99.90;;;;;;5004535;28;19924;-72
2022/08/26 00:22:56;;;;;;;;;;;19.50;99.90;;;;;;5023143;28;19921;-72
2022/08/26 00:25:28;;;;;;;;;;;19.50;99.90;;;;;;5026894;28;19928;-72
2022/08/26 00:28:00;;;;;;;;;;;19.50;99.90;;;;;;5012388;28;19964;-72
2022/08/26 00:30:33;;;;;;;;;;;19.50;99.90;;;;;;5007639;28;19925;-72
2022/08/26 00:33:04;;;;;;;;;;;19.50;99.90;;;;;;5012811;28;20304;-72
2022/08/26 00:35:36;;;;;;;;;;;19.40;99.90;;;;;;5014152;28;19971;-72
2022/08/26 00:38:08;;;;;;;;;;;19.50;99.90;;;;;;5023432;28;20338;-73
2022/08/26 00:40:46;;;;;;;;;;;19.40;99.90;;;;;;5036242;28;19921;-72
2022/08/26 00:43:18;;;;;;;;;;;19.40;99.90;;;;;;5004630;28;19928;-72
2022/08/26 00:45:53;;;;;;;;;;;19.40;99.90;;;;;;5004947;28;19928;-72
2022/08/26 00:48:21;;;;;;;;;;;19.40;99.90;;;;;;5038992;28;20280;-72
2022/08/26 00:50:55;;;;;;;;;;;19.40;99.90;;;;;;5023178;28;19927;-72
2022/08/26 00:53:29;;;;;;;;;;;19.30;99.90;;;;;;5011327;28;19928;-72
2022/08/26 00:56:01;;;;;;;;;;;19.40;99.90;;;;;;5022214;28;19922;-72
2022/08/26 00:58:34;;;;;;;;;;;19.30;99.90;;;;;;4985059;28;19931;-72
2022/08/26 01:01:06;;;;;;;;;;;19.30;99.90;;;;;;5005069;28;19921;-72
2022/08/26 01:03:39;;;;;;;;;;;19.40;99.90;;;;;;5020491;28;20520;-72
2022/08/26 01:06:11;;;;;;;;;;;19.30;99.90;;;;;;5003363;28;19952;-72
2022/08/26 01:08:43;;;;;;;;;;;19.30;99.90;;;;;;5011523;28;19936;-72
2022/08/26 01:11:15;;;;;;;;;;;19.30;99.90;;;;;;5000565;28;19922;-71
2022/08/26 01:13:42;;;;;;;;;;;19.30;99.90;;;;;;4984559;28;19929;-72
2022/08/26 01:16:14;;;;;;;;;;;19.20;99.90;;;;;;5021904;28;19925;-72
2022/08/26 01:18:47;;;;;;;;;;;19.20;99.90;;;;;;5021092;28;19922;-72
2022/08/26 01:21:17;;;;;;;;;;;19.10;99.90;;;;;;5010117;28;19935;-72
2022/08/26 01:23:50;;;;;;;;;;;19.10;99.90;;;;;;5012437;28;19925;-72
2022/08/26 01:26:24;;;;;;;;;;;18.90;99.90;;;;;;5020800;28;20330;-73
2022/08/26 01:28:57;;;;;;;;;;;18.80;99.90;;;;;;5012622;28;19921;-72
2022/08/26 01:31:36;;;;;;;;;;;18.70;99.90;;;;;;5013055;28;19931;-72
2022/08/26 01:34:14;;;;;;;;;;;18.70;99.90;;;;;;5010066;28;19922;-73
2022/08/26 01:36:46;;;;;;;;;;;18.70;99.90;;;;;;5010142;28;19921;-72
2022/08/26 01:39:13;;;;;;;;;;;18.70;99.90;;;;;;5006756;28;19932;-72
2022/08/26 01:41:45;;;;;;;;;;;18.80;99.90;;;;;;5025628;28;20421;-73
2022/08/26 01:44:19;;;;;;;;;;;18.70;99.90;;;;;;5027415;28;20288;-71
2022/08/26 01:46:51;;;;;;;;;;;18.70;99.90;;;;;;5023786;28;20392;-72
2022/08/26 01:49:19;;;;;;;;;;;18.70;99.90;;;;;;5014082;28;20272;-72
2022/08/26 01:51:48;;;;;;;;;;;18.70;99.90;;;;;;5005622;28;19924;-72
2022/08/26 01:54:20;;;;;;;;;;;18.60;99.90;;;;;;5026087;28;19922;-73
2022/08/26 01:56:52;;;;;;;;;;;18.50;99.90;;;;;;5026067;28;19921;-72
2022/08/26 01:59:24;;;;;;;;;;;18.40;99.90;;;;;;5039429;28;20461;-72
2022/08/26 02:01:56;;;;;;;;;;;18.40;99.90;;;;;;5025756;28;20276;-71
2022/08/26 02:04:38;;;;;;;;;;;18.40;99.90;;;;;;5013475;28;19932;-72
2022/08/26 02:07:10;;;;;;;;;;;18.40;99.90;;;;;;5014955;28;19925;-71
2022/08/26 02:09:45;;;;;;;;;;;18.40;99.90;;;;;;5023948;28;19921;-72
2022/08/26 02:12:13;;;;;;;;;;;18.40;99.90;;;;;;5026675;28;19921;-72
2022/08/26 02:14:49;;;;;;;;;;;18.40;99.90;;;;;;5022624;28;19921;-73
2022/08/26 02:17:23;;;;;;;;;;;18.40;99.90;;;;;;5008327;28;19927;-72
2022/08/26 02:19:55;;;;;;;;;;;18.50;99.90;;;;;;5023877;28;19947;-71
2022/08/26 02:22:29;;;;;;;;;;;18.50;99.90;;;;;;5014203;28;19943;-71
2022/08/26 02:25:05;;;;;;;;;;;18.60;99.90;;;;;;5015468;28;19932;-72
2022/08/26 02:27:37;;;;;;;;;;;18.60;99.90;;;;;;5007157;28;19948;-72
2022/08/26 02:30:21;;;;;;;;;;;18.50;99.90;;;;;;5026428;28;20276;-72
2022/08/26 02:32:53;;;;;;;;;;;18.50;99.90;;;;;;5038468;28;19921;-72
2022/08/26 02:35:25;;;;;;;;;;;18.50;99.90;;;;;;5014824;28;19921;-72
2022/08/26 02:37:57;;;;;;;;;;;18.50;99.90;;;;;;5025597;28;19968;-72
2022/08/26 02:40:32;;;;;;;;;;;18.50;99.90;;;;;;5023202;28;19960;-71
2022/08/26 02:43:04;;;;;;;;;;;18.50;99.90;;;;;;5016147;28;20400;-72
2022/08/26 02:45:35;;;;;;;;;;;18.50;99.90;;;;;;5010742;28;19925;-72
2022/08/26 02:48:10;;;;;;;;;;;18.50;99.90;;;;;;5003148;28;20589;-72
2022/08/26 02:50:42;;;;;;;;;;;18.50;99.90;;;;;;5008417;28;19928;-71
2022/08/26 02:53:09;;;;;;;;;;;18.50;99.90;;;;;;5007291;28;19921;-71
2022/08/26 02:55:36;;;;;;;;;;;18.40;99.90;;;;;;5024400;28;20296;-72
2022/08/26 02:58:08;;;;;;;;;;;18.40;99.90;;;;;;5022727;28;20026;-71
2022/08/26 03:00:40;;;;;;;;;;;18.40;99.90;;;;;;5023172;28;20284;-72
2022/08/26 03:03:11;;;;;;;;;;;18.40;99.90;;;;;;5013447;28;19921;-72
2022/08/26 03:05:43;;;;;;;;;;;18.40;99.90;;;;;;5006717;28;19921;-73
2022/08/26 03:08:15;;;;;;;;;;;18.50;99.90;;;;;;5005763;28;19932;-71
2022/08/26 03:10:46;;;;;;;;;;;18.50;99.90;;;;;;5015590;28;19932;-72
2022/08/26 03:13:18;;;;;;;;;;;18.50;99.90;;;;;;5015617;28;20280;-72
2022/08/26 03:15:49;;;;;;;;;;;18.50;99.90;;;;;;5003308;28;19921;-72
2022/08/26 03:18:21;;;;;;;;;;;18.50;99.90;;;;;;5007296;28;20383;-72
2022/08/26 03:20:53;;;;;;;;;;;18.50;99.90;;;;;;5004645;28;19925;-72
2022/08/26 03:23:24;;;;;;;;;;;18.50;99.90;;;;;;5019192;28;19921;-71
2022/08/26 03:25:51;;;;;;;;;;;18.40;99.90;;;;;;5009660;28;19925;-71
2022/08/26 03:28:23;;;;;;;;;;;18.30;99.90;;;;;;5008382;28;19943;-72
2022/08/26 03:30:56;;;;;;;;;;;18.30;99.90;;;;;;5021609;28;19930;-71
2022/08/26 03:33:28;;;;;;;;;;;18.30;99.90;;;;;;5012274;28;20371;-72
2022/08/26 03:36:02;;;;;;;;;;;18.20;99.90;;;;;;5025276;28;19928;-72
2022/08/26 03:38:34;;;;;;;;;;;18.20;99.90;;;;;;5021797;28;19921;-72
2022/08/26 03:41:07;;;;;;;;;;;18.20;99.90;;;;;;4998257;28;19921;-73
2022/08/26 03:43:39;;;;;;;;;;;18.20;99.90;;;;;;5013192;28;20303;-73
2022/08/26 03:46:10;;;;;;;;;;;18.20;99.90;;;;;;5024592;28;19929;-72
2022/08/26 03:48:42;;;;;;;;;;;18.20;99.90;;;;;;5022321;28;19967;-72
2022/08/26 03:51:16;;;;;;;;;;;18.20;99.90;;;;;;5010632;28;19944;-71
2022/08/26 03:53:47;;;;;;;;;;;18.30;99.90;;;;;;5025141;28;19932;-72
2022/08/26 03:56:19;;;;;;;;;;;18.30;99.90;;;;;;5021772;28;19992;-73
2022/08/26 03:58:51;;;;;;;;;;;18.30;99.90;;;;;;5006217;28;19928;-71
2022/08/26 04:01:23;;;;;;;;;;;18.30;99.90;;;;;;5004507;28;19964;-71
2022/08/26 04:03:59;;;;;;;;;;;18.20;99.90;;;;;;5039983;28;19928;-72
2022/08/26 04:06:32;;;;;;;;;;;18.20;99.90;;;;;;5024735;28;19976;-72
2022/08/26 04:09:00;;;;;;;;;;;18.20;99.90;;;;;;5014730;28;19932;-72
2022/08/26 04:11:32;;;;;;;;;;;18.10;99.90;;;;;;5030863;28;20360;-72
2022/08/26 04:14:05;;;;;;;;;;;18.00;99.90;;;;;;5013865;28;20804;-72
2022/08/26 04:16:37;;;;;;;;;;;18.00;99.90;;;;;;5013363;28;19928;-72
2022/08/26 04:19:10;;;;;;;;;;;18.00;99.90;;;;;;5003162;28;20319;-72
2022/08/26 04:21:42;;;;;;;;;;;17.90;99.90;;;;;;5037617;28;19921;-72
2022/08/26 04:24:14;;;;;;;;;;;17.90;99.90;;;;;;5013330;28;19946;-72
2022/08/26 04:26:46;;;;;;;;;;;17.90;99.90;;;;;;5029131;28;19922;-72
2022/08/26 04:29:17;;;;;;;;;;;17.90;99.90;;;;;;5031129;28;19921;-72
2022/08/26 04:31:49;;;;;;;;;;;17.90;99.90;;;;;;5014862;28;20427;-72
2022/08/26 04:34:16;;;;;;;;;;;17.90;99.90;;;;;;5027259;28;20402;-72
2022/08/26 04:36:49;;;;;;;;;;;17.90;99.90;;;;;;5001997;28;19925;-72
2022/08/26 04:39:20;;;;;;;;;;;17.90;99.90;;;;;;5021798;28;19921;-72
2022/08/26 04:41:53;;;;;;;;;;;17.80;99.90;;;;;;5022095;28;19920;-72
2022/08/26 04:44:26;;;;;;;;;;;17.80;99.90;;;;;;5000376;28;19932;-72
2022/08/26 04:46:58;;;;;;;;;;;17.80;99.90;;;;;;4998026;28;20364;-72
2022/08/26 04:49:25;;;;;;;;;;;17.80;99.90;;;;;;5012643;28;19940;-72
2022/08/26 04:51:57;;;;;;;;;;;17.80;99.90;;;;;;5011661;28;20539;-72
2022/08/26 04:54:29;;;;;;;;;;;17.80;99.90;;;;;;5008972;28;19929;-72
2022/08/26 04:57:01;;;;;;;;;;;17.80;99.90;;;;;;5012682;28;20403;-72
2022/08/26 04:59:32;;;;;;;;;;;17.80;99.90;;;;;;5009403;28;19929;-72
2022/08/26 05:02:05;;;;;;;;;;;17.80;99.90;;;;;;5019155;28;19922;-72
2022/08/26 05:04:37;;;;;;;;;;;17.70;99.90;;;;;;5031708;28;19929;-72
2022/08/26 05:07:09;;;;;;;;;;;17.80;99.90;;;;;;5014732;28;19922;-72
2022/08/26 05:09:41;;;;;;;;;;;17.80;99.90;;;;;;4995668;28;19964;-72
2022/08/26 05:12:12;;;;;;;;;;;17.80;99.90;;;;;;5011868;28;20386;-72
2022/08/26 05:14:45;;;;;;;;;;;17.70;99.90;;;;;;4994331;28;19921;-72
2022/08/26 05:17:16;;;;;;;;;;;17.70;99.90;;;;;;5017747;28;19932;-72
2022/08/26 05:19:49;;;;;;;;;;;17.70;99.90;;;;;;5012882;28;19926;-72
2022/08/26 05:22:21;;;;;;;;;;;17.70;99.90;;;;;;5003200;28;19927;-72
2022/08/26 05:24:48;;;;;;;;;;;17.70;99.90;;;;;;5024922;28;19921;-72
2022/08/26 05:27:19;;;;;;;;;;;17.80;99.90;;;;;;5028886;28;19927;-72
2022/08/26 05:29:54;;;;;;;;;;;17.80;99.90;;;;;;5030845;28;19932;-72
2022/08/26 05:32:26;;;;;;;;;;;17.80;99.90;;;;;;5044190;28;19921;-72
2022/08/26 05:34:58;;;;;;;;;;;17.80;99.90;;;;;;4998248;28;19921;-72
2022/08/26 05:37:30;;;;;;;;;;;17.90;99.90;;;;;;5011532;28;19928;-72
2022/08/26 05:40:02;;;;;;;;;;;17.90;99.90;;;;;;5010200;28;20424;-72
2022/08/26 05:42:34;;;;;;;;;;;17.90;99.90;;;;;;5022041;28;19928;-72
2022/08/26 05:45:06;;;;;;;;;;;17.80;99.90;;;;;;5013145;28;20011;-72
2022/08/26 05:47:38;;;;;;;;;;;17.80;99.90;;;;;;5013633;28;19967;-72
2022/08/26 05:50:10;;;;;;;;;;;17.70;99.90;;;;;;5010689;28;20370;-72
2022/08/26 05:52:41;;;;;;;;;;;17.70;99.90;;;;;;5008368;28;20392;-72
2022/08/26 05:55:13;;;;;;;;;;;17.70;99.90;;;;;;5031181;28;19991;-72
2022/08/26 05:57:45;;;;;;;;;;;17.70;99.90;;;;;;5009820;28;20401;-72
2022/08/26 06:00:17;;;;;;;;;;;17.80;99.90;;;;;;5009916;28;20015;-72
2022/08/26 06:02:48;;;;;;;;;;;17.80;99.90;;;;;;5018684;28;19922;-72
2022/08/26 06:05:20;;;;;;;;;;;17.80;99.90;;;;;;5008030;28;20008;-72
2022/08/26 06:08:10;;;;;;;;;;;17.80;99.90;;;;;;5011672;28;19947;-72
2022/08/26 06:10:46;;;;;;;;;;;17.80;99.90;;;;;;4995625;28;19944;-72
2022/08/26 06:13:23;;;;;;;;;;;17.90;99.90;;;;;;5009827;28;19931;-72
2022/08/26 06:15:55;;;;;;;;;;;17.90;99.90;;;;;;5016587;28;19932;-72
2022/08/26 06:18:33;;;;;;;;;;;17.90;99.90;;;;;;5010172;28;20363;-72
2022/08/26 06:21:15;;;;;;;;;;;18.10;99.90;;;;;;5021985;28;19969;-73
2022/08/26 06:26:39;;;;;;;;;;;18.20;99.90;;;;;;5014844;28;20302;-72
2022/08/26 06:29:11;;;;;;;;;;;18.20;99.90;;;;;;5014712;28;19929;-72
2022/08/26 06:31:37;;;;;;;;;;;18.30;99.90;;;;;;5011563;28;19929;-72
2022/08/26 06:34:04;;;;;;;;;;;18.40;99.90;;;;;;5000115;28;20376;-72
2022/08/26 06:36:38;;;;;;;;;;;18.40;99.90;;;;;;5023205;28;19925;-72
2022/08/26 06:39:11;;;;;;;;;;;18.60;99.90;;;;;;5013433;28;19921;-72
2022/08/26 06:41:43;;;;;;;;;;;18.60;99.90;;;;;;5024599;28;19925;-72
2022/08/26 06:44:16;;;;;;;;;;;18.60;99.90;;;;;;4998532;28;19921;-72
2022/08/26 06:46:44;;;;;;;;;;;18.70;99.90;;;;;;5031540;28;20425;-72
2022/08/26 06:49:16;;;;;;;;;;;18.70;99.90;;;;;;5015469;28;19971;-72
2022/08/26 06:51:47;;;;;;;;;;;18.80;99.90;;;;;;5016263;28;19944;-72
2022/08/26 06:54:20;;;;;;;;;;;18.80;99.90;;;;;;5037972;28;20012;-72
2022/08/26 06:56:46;;;;;;;;;;;18.80;99.90;;;;;;5007106;28;19928;-72
2022/08/26 06:59:18;;;;;;;;;;;18.90;99.90;;;;;;5005896;28;19935;-72
2022/08/26 07:01:50;;;;;;;;;;;18.90;99.90;;;;;;5032837;28;19921;-72
2022/08/26 07:04:23;;;;;;;;;;;18.80;99.90;;;;;;5024890;28;20329;-72
2022/08/26 07:06:55;;;;;;;;;;;18.90;99.90;;;;;;5045880;28;20275;-72
2022/08/26 07:09:29;;;;;;;;;;;18.90;99.90;;;;;;5016257;28;19921;-72
2022/08/26 07:12:01;;;;;;;;;;;18.90;99.90;;;;;;5013446;28;19921;-72
2022/08/26 07:14:33;;;;;;;;;;;18.90;99.90;;;;;;5000214;28;19932;-72
2022/08/26 07:17:05;;;;;;;;;;;19.00;99.90;;;;;;5002406;28;20407;-72
2022/08/26 07:19:37;;;;;;;;;;;19.10;99.90;;;;;;5022020;28;20391;-72
2022/08/26 07:22:09;;;;;;;;;;;19.10;99.90;;;;;;4987762;28;19921;-72
2022/08/26 07:24:40;;;;;;;;;;;19.20;99.90;;;;;;5028075;28;19980;-72
2022/08/26 07:27:09;;;;;;;;;;;19.30;99.90;;;;;;5012738;28;19929;-72
2022/08/26 07:29:42;;;;;;;;;;;19.40;99.90;;;;;;5014151;28;19928;-72
2022/08/26 07:32:14;;;;;;;;;;;19.50;99.90;;;;;;5030692;28;20016;-72
2022/08/26 07:34:46;;;;;;;;;;;19.60;99.90;;;;;;4999315;28;20012;-73
2022/08/26 07:37:18;;;;;;;;;;;19.70;99.90;;;;;;5020590;28;19925;-73
2022/08/26 07:39:50;;;;;;;;;;;19.80;99.90;;;;;;5013628;28;19960;-72
2022/08/26 07:42:21;;;;;;;;;;;20.00;99.90;;;;;;5040989;28;19968;-72
2022/08/26 07:44:53;;;;;;;;;;;20.10;99.90;;;;;;5012515;28;19928;-72
2022/08/26 07:47:24;;;;;;;;;;;20.20;99.90;;;;;;5013742;28;19921;-72
2022/08/26 07:49:56;;;;;;;;;;;20.30;99.90;;;;;;5009115;28;19925;-72
2022/08/26 07:52:29;;;;;;;;;;;20.30;99.90;;;;;;5012075;28;19960;-72
2022/08/26 07:55:01;;;;;;;;;;;20.30;99.90;;;;;;5017729;28;19928;-72
2022/08/26 07:57:33;;;;;;;;;;;20.30;99.90;;;;;;5021072;28;19964;-72
2022/08/26 08:00:06;;;;;;;;;;;20.30;99.90;;;;;;5023076;28;20398;-72
2022/08/26 08:02:37;;;;;;;;;;;20.20;99.90;;;;;;5002732;28;19980;-72
2022/08/26 08:05:10;;;;;;;;;;;20.20;99.90;;;;;;5011597;28;19973;-72
2022/08/26 08:07:37;;;;;;;;;;;20.10;99.90;;;;;;5012943;28;19929;-72
2022/08/26 08:10:11;;;;;;;;;;;20.00;99.90;;;;;;4995808;28;19993;-72
2022/08/26 08:12:43;;;;;;;;;;;20.00;99.90;;;;;;5015900;28;19927;-72
2022/08/26 08:15:15;;;;;;;;;;;20.00;99.90;;;;;;5032567;28;19925;-72
2022/08/26 08:17:47;;;;;;;;;;;19.90;99.90;;;;;;5020110;28;19931;-72
2022/08/26 08:20:19;;;;;;;;;;;19.90;99.90;;;;;;5006850;28;19924;-73
2022/08/26 08:22:51;;;;;;;;;;;19.90;99.90;;;;;;4997579;28;19932;-72
2022/08/26 08:25:18;;;;;;;;;;;19.90;99.90;;;;;;5009688;28;19975;-72
2022/08/26 08:27:50;;;;;;;;;;;19.90;99.90;;;;;;5015421;28;19921;-72
2022/08/26 08:30:18;;;;;;;;;;;19.80;99.90;;;;;;5014116;28;20364;-73
2022/08/26 08:32:50;;;;;;;;;;;19.90;99.90;;;;;;5013941;28;19960;-73
2022/08/26 08:35:22;;;;;;;;;;;19.90;99.90;;;;;;5025572;28;19921;-72
2022/08/26 08:37:54;;;;;;;;;;;20.00;99.90;;;;;;5024300;28;20279;-72
2022/08/26 08:40:26;;;;;;;;;;;20.10;99.90;;;;;;5003168;28;19928;-72
2022/08/26 08:43:01;;;;;;;;;;;20.30;99.90;;;;;;5006120;28;19968;-72
2022/08/26 08:45:51;;;;;;;;;;;20.40;99.90;;;;;;5014317;28;19925;-72
2022/08/26 08:48:45;;;;;;;;;;;20.50;99.90;;;;;;5013638;28;19921;-72
2022/08/26 08:51:22;;;;;;;;;;;20.70;99.90;;;;;;5013100;28;20019;-72
2022/08/26 08:53:54;;;;;;;;;;;20.80;99.90;;;;;;5027264;28;19924;-72
2022/08/26 08:56:28;;;;;;;;;;;21.00;99.90;;;;;;5009996;28;19921;-72
2022/08/26 08:59:16;;;;;;;;;;;21.20;99.90;;;;;;5021806;28;19927;-72
2022/08/26 09:01:51;;;;;;;;;;;21.20;99.90;;;;;;5019285;28;19921;-72
2022/08/26 09:04:29;;;;;;;;;;;21.40;99.90;;;;;;5006748;28;19922;-72
2022/08/26 09:07:01;;;;;;;;;;;21.50;99.90;;;;;;5011088;28;20515;-72
2022/08/26 09:09:38;;;;;;;;;;;21.70;99.90;;;;;;5011316;28;20383;-72
2022/08/26 09:12:11;;;;;;;;;;;21.80;99.90;;;;;;4997359;28;20284;-72
2022/08/26 09:14:45;;;;;;;;;;;22.00;99.90;;;;;;4997768;28;19928;-72
2022/08/26 09:17:34;;;;;;;;;;;22.10;99.90;;;;;;5011425;28;19930;-72
2022/08/26 09:20:12;;;;;;;;;;;22.10;99.90;;;;;;4977578;28;19926;-73
2022/08/26 09:22:43;;;;;;;;;;;22.10;99.90;;;;;;5000960;28;20273;-73
2022/08/26 09:25:15;;;;;;;;;;;22.20;99.90;;;;;;5006152;28;20015;-72
2022/08/26 09:27:48;;;;;;;;;;;22.20;99.90;;;;;;5012769;28;19965;-72
2022/08/26 09:30:28;;;;;;;;;;;22.30;99.90;;;;;;5012382;28;19926;-72
2022/08/26 09:33:08;;;;;;;;;;;22.40;99.90;;;;;;5015138;28;20413;-72
2022/08/26 09:35:42;;;;;;;;;;;22.50;99.90;;;;;;5000304;28;20019;-72
2022/08/26 09:38:31;;;;;;;;;;;22.70;99.90;;;;;;5012450;28;20390;-72
2022/08/26 09:41:05;;;;;;;;;;;22.80;99.90;;;;;;5002377;28;19921;-72
2022/08/26 09:43:36;;;;;;;;;;;22.80;99.90;;;;;;5016907;28;19928;-72
2022/08/26 09:46:11;;;;;;;;;;;22.90;99.90;;;;;;5013416;28;19927;-72
2022/08/26 09:48:42;;;;;;;;;;;23.00;99.90;;;;;;5011013;28;20012;-72
2022/08/26 09:51:25;;;;;;;;;;;23.20;99.90;;;;;;4995917;28;19921;-72
2022/08/26 09:54:00;;;;;;;;;;;23.40;99.90;;;;;;5012968;28;20316;-72
2022/08/26 09:56:33;;;;;;;;;;;23.60;99.90;;;;;;5009999;28;19968;-72
2022/08/26 09:59:08;;;;;;;;;;;23.70;99.90;;;;;;5012498;28;20383;-72
2022/08/26 10:01:41;;;;;;;;;;;23.80;99.90;;;;;;5014650;28;19925;-72
2022/08/26 10:04:21;;;;;;;;;;;24.00;99.90;;;;;;5002584;28;19925;-72
2022/08/26 10:06:58;;;;;;;;;;;24.10;99.90;;;;;;5017532;28;19922;-72
2022/08/26 10:09:39;;;;;;;;;;;24.30;99.90;;;;;;5017795;28;19921;-72
2022/08/26 10:12:20;;;;;;;;;;;24.30;99.90;;;;;;5031587;28;19935;-72
2022/08/26 10:14:55;;;;;;;;;;;24.40;99.90;;;;;;5027714;28;19921;-72
2022/08/26 10:17:45;;;;;;;;;;;24.50;99.90;;;;;;5013942;28;19984;-72
2022/08/26 10:20:21;;;;;;;;;;;24.40;99.90;;;;;;5014670;28;19926;-72
2022/08/26 10:22:58;;;;;;;;;;;24.50;99.90;;;;;;5003263;28;19922;-72
2022/08/26 10:25:36;;;;;;;;;;;24.70;99.90;;;;;;5016880;28;20023;-72
2022/08/26 10:28:10;;;;;;;;;;;24.60;99.90;;;;;;5031108;28;19921;-72
2022/08/26 10:30:49;;;;;;;;;;;24.50;99.90;;;;;;5033660;28;19928;-72
2022/08/26 10:33:21;;;;;;;;;;;24.50;99.90;;;;;;5018202;28;19925;-72
2022/08/26 10:35:54;;;;;;;;;;;24.50;99.90;;;;;;5008683;28;20028;-72
2022/08/26 10:38:33;;;;;;;;;;;24.50;99.90;;;;;;5023224;28;19927;-72
2022/08/26 10:41:05;;;;;;;;;;;24.50;99.90;;;;;;5025704;28;19927;-72
2022/08/26 10:43:56;;;;;;;;;;;24.60;99.90;;;;;;5019740;28;19999;-72
2022/08/26 10:46:38;;;;;;;;;;;24.70;99.90;;;;;;5029881;28;20358;-72
2022/08/26 10:49:14;;;;;;;;;;;24.80;99.90;;;;;;5014531;28;19943;-72
2022/08/26 10:51:48;;;;;;;;;;;25.00;99.90;;;;;;5016421;28;19921;-72
2022/08/26 10:54:50;;;;;;;;;;;25.00;99.90;;;;;;5028864;28;19927;-72
2022/08/26 10:57:21;;;;;;;;;;;25.20;99.90;;;;;;5010001;28;19937;-72
2022/08/26 10:59:59;;;;;;;;;;;25.30;99.90;;;;;;5025070;28;20284;-72
2022/08/26 11:02:40;;;;;;;;;;;25.40;99.90;;;;;;5026692;28;19928;-72
2022/08/26 11:05:22;;;;;;;;;;;25.60;99.90;;;;;;5000012;28;19921;-72
2022/08/26 11:08:12;;;;;;;;;;;25.80;99.90;;;;;;4997661;28;20387;-72
2022/08/26 11:10:50;;;;;;;;;;;25.90;99.90;;;;;;4997510;28;19926;-72
2022/08/26 11:13:57;;;;;;;;;;;26.00;99.90;;;;;;5017056;28;20376;-72
2022/08/26 11:16:48;;;;;;;;;;;26.20;99.90;;;;;;4959650;28;19929;-72
2022/08/26 11:19:28;;;;;;;;;;;26.30;99.90;;;;;;5006286;28;19921;-72
2022/08/26 11:22:01;;;;;;;;;;;26.50;99.90;;;;;;5012986;28;19928;-73
2022/08/26 11:24:58;;;;;;;;;;;26.60;99.90;;;;;;5017613;28;19933;-72
2022/08/26 11:27:35;;;;;;;;;;;26.70;99.90;;;;;;5015343;28;19921;-72
2022/08/26 11:30:14;;;;;;;;;;;26.80;99.90;;;;;;5030145;28;19925;-72
2022/08/26 11:32:48;;;;;;;;;;;26.90;99.90;;;;;;5017372;28;19957;-72
2022/08/26 11:35:20;;;;;;;;;;;26.90;99.90;;;;;;5012821;28;19940;-72
2022/08/26 11:37:55;;;;;;;;;;;26.90;99.90;;;;;;5010952;28;19932;-72
2022/08/26 11:40:31;;;;;;;;;;;26.90;99.90;;;;;;5011934;28;19921;-72
2022/08/26 11:43:20;;;;;;;;;;;27.00;99.90;;;;;;5010073;28;20009;-72
2022/08/26 11:46:09;;;;;;;;;;;27.10;99.90;;;;;;5015916;28;19921;-72
2022/08/26 11:48:42;;;;;;;;;;;27.20;99.90;;;;;;5028480;28;19928;-72
2022/08/26 11:51:21;;;;;;;;;;;27.20;99.90;;;;;;5012381;28;19922;-72
2022/08/26 11:54:07;;;;;;;;;;;27.30;99.90;;;;;;5017510;28;20279;-72
2022/08/26 11:56:40;;;;;;;;;;;27.40;99.90;;;;;;5013984;28;19957;-72
2022/08/26 11:59:16;;;;;;;;;;;27.40;99.90;;;;;;5012966;28;19971;-72
2022/08/26 12:01:44;;;;;;;;;;;27.50;99.90;;;;;;5020773;28;19928;-72
2022/08/26 12:04:23;;;;;;;;;;;27.50;99.90;;;;;;5016859;28;19925;-72
2022/08/26 12:06:50;;;;;;;;;;;27.50;99.90;;;;;;5028010;28;19925;-72
2022/08/26 12:09:26;;;;;;;;;;;27.60;99.90;;;;;;5031575;28;19921;-72
2022/08/26 12:12:09;;;;;;;;;;;27.40;99.90;;;;;;5029732;28;19925;-72
2022/08/26 12:14:40;;;;;;;;;;;27.30;99.90;;;;;;4999627;28;20264;-72
2022/08/26 12:17:17;;;;;;;;;;;27.30;99.90;;;;;;5012208;28;19921;-72
2022/08/26 12:19:49;;;;;;;;;;;27.40;99.90;;;;;;5012915;28;20380;-73
2022/08/26 12:22:22;;;;;;;;;;;27.60;99.90;;;;;;5012062;28;19932;-73
2022/08/26 12:24:57;;;;;;;;;;;27.80;99.90;;;;;;5016433;28;19921;-72
2022/08/26 12:27:28;;;;;;;;;;;27.90;99.90;;;;;;5030235;28;19921;-73
2022/08/26 12:30:02;;;;;;;;;;;28.10;99.90;;;;;;5014717;28;19928;-72
2022/08/26 12:32:34;;;;;;;;;;;28.20;99.90;;;;;;5016778;28;19921;-74
2022/08/26 12:35:10;;;;;;;;;;;28.40;99.90;;;;;;5018567;28;19925;-73
2022/08/26 12:37:44;;;;;;;;;;;28.50;99.90;;;;;;5023265;28;20402;-73
2022/08/26 12:40:38;;;;;;;;;;;28.60;98.00;;;;;;5022902;28;20372;-73
2022/08/26 12:43:14;;;;;;;;;;;28.60;98.50;;;;;;5001172;28;19922;-73
2022/08/26 12:45:54;;;;;;;;;;;28.60;98.20;;;;;;5015714;28;19936;-72
2022/08/26 12:48:28;;;;;;;;;;;28.50;97.00;;;;;;5013149;28;19921;-73
2022/08/26 12:51:01;;;;;;;;;;;28.50;98.50;;;;;;5008745;28;20394;-72
2022/08/26 12:53:34;;;;;;;;;;;28.50;96.20;;;;;;5016844;28;19925;-73
2022/08/26 12:56:44;;;;;;;;;;;28.50;96.10;;;;;;5033321;28;20375;-73
2022/08/26 12:59:23;;;;;;;;;;;28.60;97.90;;;;;;4970348;28;19937;-72
2022/08/26 13:01:55;;;;;;;;;;;28.80;94.40;;;;;;4969426;28;20304;-73
2022/08/26 13:04:30;;;;;;;;;;;28.80;93.70;;;;;;5004536;28;20334;-73
2022/08/26 13:07:17;;;;;;;;;;;28.70;94.80;;;;;;5030088;28;19921;-73
2022/08/26 13:09:50;;;;;;;;;;;28.70;94.70;;;;;;5014638;28;19921;-73
2022/08/26 13:12:31;;;;;;;;;;;28.70;93.80;;;;;;5015475;28;20404;-73
2022/08/26 13:15:04;;;;;;;;;;;28.70;92.90;;;;;;5005883;28;19925;-73
2022/08/26 13:17:36;;;;;;;;;;;28.80;93.50;;;;;;5020983;28;19929;-73
2022/08/26 13:20:08;;;;;;;;;;;28.70;92.90;;;;;;5020311;28;20467;-72
2022/08/26 13:22:40;;;;;;;;;;;28.70;93.60;;;;;;5025718;28;19921;-73
2022/08/26 13:25:12;;;;;;;;;;;28.90;94.20;;;;;;5028038;28;20277;-72
2022/08/26 13:27:43;;;;;;;;;;;29.10;93.80;;;;;;5013601;28;19922;-73
2022/08/26 13:30:15;;;;;;;;;;;29.30;94.40;;;;;;5028083;28;20303;-73
2022/08/26 13:32:47;;;;;;;;;;;29.40;93.90;;;;;;5030058;28;19921;-73
2022/08/26 13:35:18;;;;;;;;;;;29.50;93.30;;;;;;5016409;28;19925;-72
2022/08/26 13:37:50;;;;;;;;;;;29.50;93.50;;;;;;5024111;28;19921;-72
2022/08/26 13:40:21;;;;;;;;;;;29.60;93.50;;;;;;5024825;28;19921;-73
2022/08/26 13:42:53;;;;;;;;;;;29.60;92.70;;;;;;5015462;28;20295;-73
2022/08/26 13:45:25;;;;;;;;;;;29.60;92.80;;;;;;5014962;28;20344;-72
2022/08/26 13:47:57;;;;;;;;;;;29.50;92.90;;;;;;5018370;28;19960;-73
2022/08/26 13:50:29;;;;;;;;;;;29.40;91.90;;;;;;5017300;28;19932;-72
2022/08/26 13:53:00;;;;;;;;;;;29.50;92.70;;;;;;5047256;28;19921;-73
2022/08/26 13:55:32;;;;;;;;;;;29.60;93.40;;;;;;5025445;28;19921;-73
2022/08/26 13:58:04;;;;;;;;;;;29.70;93.20;;;;;;5025975;28;19921;-72
2022/08/26 14:00:36;;;;;;;;;;;29.90;92.40;;;;;;5023881;28;20044;-72
2022/08/26 14:03:08;;;;;;;;;;;29.90;92.00;;;;;;5029540;28;20015;-72
2022/08/26 14:05:40;;;;;;;;;;;29.80;92.50;;;;;;5017711;28;20302;-73
2022/08/26 14:08:11;;;;;;;;;;;29.60;93.10;;;;;;5034313;28;19976;-72
2022/08/26 14:10:43;;;;;;;;;;;29.50;93.10;;;;;;5007349;28;19925;-73
2022/08/26 14:13:15;;;;;;;;;;;29.20;93.50;;;;;;5044573;28;19925;-73
2022/08/26 14:15:46;;;;;;;;;;;29.10;93.30;;;;;;5028422;28;19927;-73
2022/08/26 14:18:21;;;;;;;;;;;29.20;93.40;;;;;;5022485;28;19925;-72
2022/08/26 14:20:53;;;;;;;;;;;29.10;93.10;;;;;;5015722;28;20027;-72
2022/08/26 14:23:26;;;;;;;;;;;29.00;94.20;;;;;;5002833;28;20364;-72
2022/08/26 14:25:58;;;;;;;;;;;29.20;93.80;;;;;;5016251;28;19922;-72
2022/08/26 14:28:30;;;;;;;;;;;29.50;92.40;;;;;;5016097;28;19944;-72
2022/08/26 14:31:02;;;;;;;;;;;29.80;91.90;;;;;;5017191;28;19921;-73
2022/08/26 14:33:36;;;;;;;;;;;30.10;91.00;;;;;;5019871;28;19921;-72
2022/08/26 14:36:26;;;;;;;;;;;30.00;90.60;;;;;;5021734;28;19921;-72
2022/08/26 14:39:03;;;;;;;;;;;29.70;90.60;;;;;;5023855;28;19925;-72
2022/08/26 14:41:44;;;;;;;;;;;29.50;91.70;;;;;;5014483;28;19931;-72
2022/08/26 14:44:16;;;;;;;;;;;29.80;92.40;;;;;;5017727;28;19972;-73
2022/08/26 14:46:49;;;;;;;;;;;29.70;92.50;;;;;;5032909;28;19921;-73
2022/08/26 14:49:21;;;;;;;;;;;29.80;91.90;;;;;;5033773;28;19925;-73
2022/08/26 14:51:53;;;;;;;;;;;30.20;91.60;;;;;;5031140;28;19940;-73
2022/08/26 14:54:25;;;;;;;;;;;30.40;90.40;;;;;;5028554;28;19921;-73
2022/08/26 14:56:57;;;;;;;;;;;30.90;91.10;;;;;;5008982;28;19931;-73
2022/08/26 14:59:30;;;;;;;;;;;31.10;91.20;;;;;;5005790;28;19969;-73